Time;durP1;ratioP1;P1;durP2;ratioP2;P2;SDS_P1;SDS_P2;PMS_P1;PMS_P2;Temp;Humidity;BMP_temperature;BMP_pressure;BME280_temperature;BME280_humidity;BME280_pressure;Samples;Min_cycle;Max_cycle;Signal;HPM_P1;HPM_P2
2022/06/22 00:01:36;;;;;;;4.93;3.58;;;;;;;15.12;100.00;101126.69;4964705;28;20039;-85
2022/06/22 00:04:02;;;;;;;5.47;3.67;;;;;;;15.11;100.00;101124.16;4966882;28;20119;-84
2022/06/22 00:06:38;;;;;;;6.28;4.10;;;;;;;15.08;100.00;101116.44;4982789;28;20089;-85
2022/06/22 00:09:04;;;;;;;6.38;3.88;;;;;;;15.01;100.00;101108.28;4944517;28;20038;-88
2022/06/22 00:11:30;;;;;;;5.32;4.20;;;;;;;15.06;100.00;101119.34;4969725;28;20034;-86
2022/06/22 00:13:59;;;;;;;5.88;4.18;;;;;;;15.03;100.00;101111.63;4977404;28;20035;-87
2022/06/22 00:16:36;;;;;;;7.95;5.22;;;;;;;15.08;100.00;101113.72;4983771;28;20026;-89
2022/06/22 00:19:12;;;;;;;7.65;4.85;;;;;;;15.05;100.00;101108.69;4957322;28;20022;-87
2022/06/22 00:21:42;;;;;;;7.80;5.20;;;;;;;15.06;100.00;101113.09;4972567;28;20034;-86
2022/06/22 00:24:23;;;;;;;8.95;5.53;;;;;;;15.07;100.00;101117.47;4965435;28;20037;-89
2022/06/22 00:27:00;;;;;;;9.07;5.15;;;;;;;15.04;100.00;101109.75;4986499;28;20026;-87
2022/06/22 00:29:35;;;;;;;9.25;5.97;;;;;;;14.97;100.00;101092.59;4958395;28;20111;-89
2022/06/22 00:32:15;;;;;;;7.93;5.25;;;;;;;15.03;100.00;101108.91;4957090;28;20509;-88
2022/06/22 00:34:41;;;;;;;9.48;5.30;;;;;;;15.00;100.00;101113.88;4958949;28;20061;-85
2022/06/22 00:37:17;;;;;;;8.88;5.78;;;;;;;15.04;100.00;101121.41;4957470;28;20042;-88
2022/06/22 00:39:48;;;;;;;8.68;5.40;;;;;;;15.01;100.00;101112.84;4974593;28;20615;-85
2022/06/22 00:42:31;;;;;;;8.30;5.15;;;;;;;15.05;100.00;101114.94;4955195;28;20034;-90
2022/06/22 00:45:22;;;;;;;7.75;4.78;;;;;;;15.04;100.00;101109.75;4970740;28;20041;-90
2022/06/22 00:47:57;;;;;;;11.10;5.70;;;;;;;15.09;100.00;101120.84;4987946;28;20057;-84
2022/06/22 00:50:41;;;;;;;7.10;4.95;;;;;;;15.04;100.00;101117.88;4988462;28;20038;-84
2022/06/22 00:53:17;;;;;;;7.18;4.93;;;;;;;15.03;100.00;101106.22;4974053;28;20048;-86
2022/06/22 00:55:51;;;;;;;5.78;4.68;;;;;;;14.93;100.00;101098.41;4952716;28;20031;-87
2022/06/22 00:58:35;;;;;;;8.80;5.22;;;;;;;14.98;100.00;101114.09;4958955;28;20092;-89
2022/06/22 01:01:20;;;;;;;10.15;6.38;;;;;;;14.94;100.00;101110.06;4983468;28;20488;-85
2022/06/22 01:04:09;;;;;;;8.52;5.35;;;;;;;14.89;100.00;101099.81;4954462;28;20394;-87
2022/06/22 01:06:54;;;;;;;10.35;5.30;;;;;;;14.99;100.00;101123.03;4954836;28;20065;-88
2022/06/22 01:09:31;;;;;;;7.85;4.90;;;;;;;14.92;100.00;101115.72;4969741;28;20039;-84
2022/06/22 01:12:18;;;;;;;7.75;5.47;;;;;;;14.94;100.00;101121.75;4958282;28;20121;-85
2022/06/22 01:14:43;;;;;;;8.07;5.00;;;;;;;14.96;100.00;101121.56;4966549;28;20037;-90
2022/06/22 01:17:20;;;;;;;9.77;5.35;;;;;;;14.94;100.00;101115.50;4967043;28;20034;-89
2022/06/22 01:19:51;;;;;;;6.82;5.15;;;;;;;14.95;100.00;101120.72;4981534;28;20030;-90
2022/06/22 01:22:46;;;;;;;10.43;4.90;;;;;;;14.94;100.00;101124.44;4989644;28;20034;-87
2022/06/22 01:25:36;;;;;;;8.07;4.70;;;;;;;14.92;100.00;101115.72;4999605;28;20476;-90
2022/06/22 01:28:03;;;;;;;8.00;4.88;;;;;;;14.90;100.00;101116.94;4990284;28;20045;-86
2022/06/22 01:30:38;;;;;;;7.25;4.65;;;;;;;14.96;100.00;101129.69;4985877;28;20045;-85
2022/06/22 01:33:30;;;;;;;10.15;5.63;;;;;;;14.97;100.00;101136.75;4983799;28;20038;-90
2022/06/22 01:35:57;;;;;;;8.50;4.43;;;;;;;14.93;100.00;101122.78;4967296;28;20038;-86
2022/06/22 01:38:26;;;;;;;6.93;3.95;;;;;;;14.97;100.00;101128.63;4969200;28;20041;-87
2022/06/22 01:41:02;;;;;;;4.95;3.50;;;;;;;14.95;100.00;101126.16;4983815;28;20041;-91
2022/06/22 01:43:29;;;;;;;5.10;3.00;;;;;;;14.92;100.00;101123.84;4998754;28;20023;-86
2022/06/22 01:46:16;;;;;;;5.22;3.35;;;;;;;14.81;100.00;101110.81;4956977;28;20535;-88
2022/06/22 01:48:48;;;;;;;4.38;2.85;;;;;;;14.81;100.00;101116.22;4986331;28;20045;-88
2022/06/22 01:51:19;;;;;;;6.20;3.10;;;;;;;14.86;100.00;101131.88;4967370;28;20046;-89
2022/06/22 01:53:57;;;;;;;4.50;3.25;;;;;;;14.76;100.00;101110.53;4966679;28;20432;-85
2022/06/22 01:56:27;;;;;;;4.22;2.80;;;;;;;14.81;100.00;101118.09;4951692;28;20129;-86
2022/06/22 01:58:59;;;;;;;3.30;2.38;;;;;;;14.79;100.00;101117.44;4968264;28;20464;-89
2022/06/22 02:01:42;;;;;;;4.68;3.08;;;;;;;14.74;100.00;101118.06;4948866;28;20180;-84
2022/06/22 02:04:46;;;;;;;3.03;2.28;;;;;;;14.66;100.00;101112.75;4981773;28;20045;-89
2022/06/22 02:10:03;;;;;;;3.60;2.42;;;;;;;14.56;100.00;101090.59;4984041;28;20030;-85
2022/06/22 02:12:31;;;;;;;;;;;;;;;14.51;100.00;101100.09;4983549;28;20026;-89
2022/06/22 02:15:24;;;;;;;3.55;2.50;;;;;;;14.49;100.00;101104.03;4966167;28;20292;-86
2022/06/22 02:17:50;;;;;;;4.70;1.98;;;;;;;14.45;100.00;101102.75;4960436;28;20057;-91
2022/06/22 02:20:19;;;;;;;3.45;2.22;;;;;;;14.41;100.00;101099.56;4943414;28;20097;-86
2022/06/22 02:22:49;;;;;;;3.63;2.40;;;;;;;14.16;100.00;101049.59;4980828;28;20101;-83
2022/06/22 02:25:17;;;;;;;4.47;2.22;;;;;;;14.33;100.00;101083.47;4982912;28;20062;-89
2022/06/22 02:27:42;;;;;;;3.03;2.03;;;;;;;14.17;100.00;101057.50;4985994;28;20039;-86
2022/06/22 02:30:08;;;;;;;3.47;2.10;;;;;;;14.15;100.00;101064.13;4986064;28;20026;-86
2022/06/22 02:32:37;;;;;;;2.45;1.75;;;;;;;14.20;100.00;101076.06;5000763;28;20030;-86
2022/06/22 02:35:04;;;;;;;2.78;1.80;;;;;;;14.18;100.00;101082.69;5011139;28;20062;-86
2022/06/22 02:37:35;;;;;;;4.88;2.15;;;;;;;14.16;100.00;101080.19;4993251;28;20164;-86
2022/06/22 02:40:03;;;;;;;3.20;2.10;;;;;;;14.16;100.00;101080.19;4958411;28;20034;-86
2022/06/22 02:45:17;;;;;;;3.30;1.80;;;;;;;14.17;100.00;101068.31;4980903;28;20452;-85
2022/06/22 02:48:12;;;;;;;2.22;1.65;;;;;;;14.20;100.00;101065.22;4971056;28;20072;-87
2022/06/22 02:51:08;;;;;;;4.22;1.90;;;;;;;14.17;100.00;101072.91;4979198;28;20059;-84
2022/06/22 02:53:36;;;;;;;2.30;1.35;;;;;;;14.13;100.00;101072.47;4972495;28;20077;-89
2022/06/22 02:56:12;;;;;;;2.38;1.73;;;;;;;14.12;100.00;101076.16;4981014;28;20030;-91
2022/06/22 02:58:38;;;;;;;3.20;1.52;;;;;;;14.08;100.00;101064.91;4983814;28;20092;-85
2022/06/22 03:01:24;;;;;;;3.83;1.50;;;;;;;14.11;100.00;101073.69;4961715;28;20046;-86
2022/06/22 03:04:23;;;;;;;1.80;1.35;;;;;;;14.09;100.00;101071.16;4981182;28;20034;-87
2022/06/22 03:06:52;;;;;;;2.85;1.50;;;;;;;14.03;100.00;101072.75;4971770;28;20054;-89
2022/06/22 03:09:18;;;;;;;3.45;1.95;;;;;;;14.03;100.00;101071.94;4948861;28;20042;-85
2022/06/22 03:11:48;;;;;;;2.40;1.40;;;;;;;13.97;100.00;101057.31;4986785;28;20121;-85
2022/06/22 03:14:26;;;;;;;3.05;1.55;;;;;;;13.99;100.00;101073.31;4989419;28;20129;-84
2022/06/22 03:17:00;;;;;;;2.65;1.50;;;;;;;13.93;100.00;101065.97;4965735;28;20137;-89
2022/06/22 03:19:36;;;;;;;3.13;1.52;;;;;;;13.93;100.00;101064.13;4955414;28;20143;-87
2022/06/22 03:22:01;;;;;;;1.75;1.33;;;;;;;13.87;100.00;101055.94;4964041;28;20030;-85
2022/06/22 03:24:39;;;;;;;2.38;1.40;;;;;;;13.84;100.00;101068.81;4952381;28;20027;-86
2022/06/22 03:27:19;;;;;;;2.63;1.58;;;;;;;13.83;100.00;101060.88;4958402;28;20034;-84
2022/06/22 03:29:53;;;;;;;3.50;1.17;;;;;;;13.87;100.00;101069.47;4978878;28;20034;-88
2022/06/22 03:32:34;;;;;;;2.83;1.45;;;;;;;13.90;100.00;101066.38;4986330;28;20113;-86
2022/06/22 03:35:11;;;;;;;1.97;1.43;;;;;;;13.74;100.00;101041.22;4972172;28;20038;-86
2022/06/22 03:37:41;;;;;;;2.28;1.30;;;;;;;13.89;100.00;101064.69;4983737;28;20030;-87
2022/06/22 03:40:16;;;;;;;2.58;1.40;;;;;;;13.90;100.00;101060.97;4954038;28;20057;-85
2022/06/22 03:42:45;;;;;;;4.53;1.48;;;;;;;13.90;100.00;101061.78;4959203;28;20491;-86
2022/06/22 03:45:18;;;;;;;3.72;1.40;;;;;;;13.84;100.00;101040.94;4971413;28;20034;-89
2022/06/22 03:48:05;;;;;;;3.72;2.33;;;;;;;13.87;100.00;101045.97;4985862;28;20401;-88
2022/06/22 03:50:53;;;;;;;3.85;1.17;;;;;;;13.89;100.00;101043.88;4973256;28;20039;-91
2022/06/22 03:53:30;;;;;;;2.25;1.40;;;;;;;13.90;100.00;101044.75;4977508;28;20041;-86
2022/06/22 03:56:05;;;;;;;2.42;1.60;;;;;;;13.90;100.00;101050.16;4982943;28;20030;-85
2022/06/22 03:58:31;;;;;;;3.30;1.30;;;;;;;13.89;100.00;101037.66;4986487;28;20042;-89
2022/06/22 04:00:58;;;;;;;2.40;1.40;;;;;;;13.89;100.00;101037.66;4988684;28;20149;-91
2022/06/22 04:03:24;;;;;;;2.40;1.05;;;;;;;13.87;100.00;101032.44;4958916;28;20088;-87
2022/06/22 04:05:55;;;;;;;1.98;1.30;;;;;;;13.99;100.00;101049.81;4962235;28;20074;-87
2022/06/22 04:08:28;;;;;;;2.03;1.50;;;;;;;13.98;100.00;101048.16;4957099;28;20396;-87
2022/06/22 04:11:11;;;;;;;1.42;1.00;;;;;;;13.84;100.00;101036.38;5001195;28;20030;-86
2022/06/22 04:14:05;;;;;;;3.92;1.48;;;;;;;13.91;100.00;101062.63;4972478;28;20070;-88
2022/06/22 04:16:40;;;;;;;1.75;1.25;;;;;;;13.85;100.00;101048.00;4986915;28;20043;-88
2022/06/22 04:19:28;;;;;;;2.65;1.17;;;;;;;13.82;100.00;101061.91;4976233;28;20117;-89
2022/06/22 04:22:00;;;;;;;2.88;1.20;;;;;;;13.73;100.00;101038.72;4972953;28;20034;-87
2022/06/22 04:24:38;;;;;;;2.67;1.25;;;;;;;13.83;100.00;101053.59;4988736;28;20030;-87
2022/06/22 04:27:11;;;;;;;1.85;1.25;;;;;;;13.83;100.00;101055.47;4970820;28;20058;-91
2022/06/22 04:29:53;;;;;;;2.92;1.23;;;;;;;13.89;100.00;101053.88;4999208;28;20027;-86
2022/06/22 04:32:18;;;;;;;3.20;1.13;;;;;;;13.88;100.00;101055.72;4976702;28;20046;-89
2022/06/22 04:34:49;;;;;;;2.95;1.30;;;;;;;13.87;100.00;101056.78;4987900;28;20035;-82
2022/06/22 04:37:21;;;;;;;2.08;1.20;;;;;;;13.92;100.00;101070.56;4979311;28;20228;-87
2022/06/22 04:39:49;;;;;;;8.75;1.98;;;;;;;13.94;100.00;101057.66;4988808;28;20116;-84
2022/06/22 04:42:15;;;;;;;2.00;1.27;;;;;;;13.95;100.00;101053.94;4992850;28;20061;-90
2022/06/22 04:44:46;;;;;;;2.17;1.42;;;;;;;14.00;100.00;101056.09;4990793;28;20092;-86
2022/06/22 04:47:19;;;;;;;3.22;1.30;;;;;;;13.93;100.00;101030.84;4973062;28;20030;-85
2022/06/22 04:49:50;;;;;;;2.50;1.40;;;;;;;14.02;100.00;101054.84;4979618;28;20130;-82
2022/06/22 04:52:22;;;;;;;3.58;1.50;;;;;;;14.07;100.00;101051.56;5001196;28;20169;-83
2022/06/22 04:54:51;;;;;;;1.50;1.10;;;;;;;14.09;100.00;101057.63;4987815;28;20488;-86
2022/06/22 04:57:23;;;;;;;1.88;1.20;;;;;;;14.13;100.00;101060.78;4997817;28;20034;-86
2022/06/22 04:59:49;;;;;;;3.03;1.17;;;;;;;14.13;100.00;101056.22;4991517;28;20039;-84
2022/06/22 05:02:17;;;;;;;1.88;1.13;;;;;;;14.10;100.00;101053.06;5005230;28;20126;-85
2022/06/22 05:04:48;;;;;;;3.35;1.30;;;;;;;14.15;100.00;101077.66;4966165;28;20045;-82
2022/06/22 05:07:42;;;;;;;2.75;1.17;;;;;;;14.06;100.00;101075.06;5012139;28;20045;-86
2022/06/22 05:10:22;;;;;;;3.47;1.52;;;;;;;13.98;100.00;101071.66;4963430;28;20038;-86
2022/06/22 05:12:52;;;;;;;2.38;1.40;;;;;;;13.91;100.00;101074.28;4974051;28;20038;-87
2022/06/22 05:15:23;;;;;;;3.40;1.60;;;;;;;13.82;100.00;101059.22;4997868;28;20035;-86
2022/06/22 05:17:49;;;;;;;4.22;2.03;;;;;;;13.90;100.00;101071.78;4997173;28;20030;-84
2022/06/22 05:20:22;;;;;;;3.20;1.50;;;;;;;13.93;100.00;101083.03;4972999;28;20049;-90
2022/06/22 05:22:49;;;;;;;1.88;1.30;;;;;;;13.85;100.00;101059.66;4983463;28;20767;-91
2022/06/22 05:25:16;;;;;;;2.20;1.60;;;;;;;13.95;100.00;101069.34;4989673;28;20038;-87
2022/06/22 05:28:00;;;;;;;2.42;1.42;;;;;;;14.05;100.00;101084.22;4970320;28;20050;-88
2022/06/22 05:30:32;;;;;;;2.85;1.35;;;;;;;14.13;100.00;101088.69;4988371;28;20030;-92
2022/06/22 05:33:03;;;;;;;2.60;1.48;;;;;;;14.20;100.00;101086.03;4959834;28;20034;-87
2022/06/22 05:35:33;;;;;;;2.58;1.50;;;;;;;14.27;100.00;101087.78;4970669;28;20503;-86
2022/06/22 05:38:03;;;;;;;2.78;1.45;;;;;;;14.39;100.00;101090.81;4981659;28;20027;-85
2022/06/22 05:40:32;;;;;;;2.28;1.30;;;;;;;14.47;100.00;101089.84;4965773;28;20073;-88
2022/06/22 05:42:58;;;;;;;2.65;1.58;;;;;;;14.57;100.00;101094.97;4962971;28;20042;-89
2022/06/22 05:45:27;;;;;;;2.60;1.67;;;;;;;14.64;100.00;101095.88;4973823;28;20035;-91
2022/06/22 05:47:53;;;;;;;3.72;1.70;;;;;;;14.68;100.00;101097.16;4983428;28;20120;-84
2022/06/22 05:50:41;;;;;;;2.42;1.50;;;;;;;14.70;100.00;101106.75;4952524;28;20483;-87
2022/06/22 05:53:25;;;;;;;3.72;1.52;;;;;;;14.72;100.00;101098.44;4976867;28;20117;-84
2022/06/22 05:56:12;;;;;;;2.83;1.50;;;;;;;14.63;100.00;101077.94;4981992;28;20033;-90
2022/06/22 05:58:48;;;;;;;1.73;1.23;;;;;;;14.72;100.00;101098.44;4975850;28;20026;-88
2022/06/22 06:01:52;;;;;;;2.38;1.60;;;;;;;14.87;100.00;101115.47;4989836;28;20415;-90
2022/06/22 06:04:26;;;;;;;3.78;1.30;;;;;;;14.92;100.00;101110.28;4985899;28;20033;-90
2022/06/22 06:06:55;;;;;;;5.10;1.45;;;;;;;14.96;100.00;101108.03;4985030;28;20052;-87
2022/06/22 06:09:23;;;;;;;2.20;1.50;;;;;;;14.96;100.00;101094.47;4988204;28;20463;-87
2022/06/22 06:12:14;;;;;;;1.88;1.30;;;;;;;15.12;100.00;101117.72;4966217;28;20045;-92
2022/06/22 06:14:44;;;;;;;2.22;1.35;;;;;;;15.17;100.00;101129.63;4972639;28;20046;-90
2022/06/22 06:17:32;;;;;;;2.10;1.30;;;;;;;15.28;100.00;101130.97;4957534;28;20479;-89
2022/06/22 06:19:58;;;;;;;2.92;1.60;;;;;;;15.38;100.00;101120.63;4983162;28;20026;-84
2022/06/22 06:22:26;;;;;;;3.42;1.40;;;;;;;15.51;100.00;101121.75;4997588;28;20030;-92
2022/06/22 06:27:42;;;;;;;2.10;1.40;;;;;;;15.76;100.00;101117.50;4986093;28;20420;-82
2022/06/22 06:30:29;;;;;;;2.53;1.48;;;;;;;15.77;98.51;101099.38;4982673;28;20029;-89
2022/06/22 06:32:59;;;;;;;3.00;1.30;;;;;;;16.04;97.23;101138.31;4983658;28;20026;-87
2022/06/22 06:35:48;;;;;;;3.47;1.40;;;;;;;16.14;96.75;101130.63;4985537;28;20037;-83
2022/06/22 06:38:29;;;;;;;2.00;1.35;;;;;;;16.24;95.74;101141.91;4997596;28;20105;-88
2022/06/22 06:41:07;;;;;;;1.70;1.17;;;;;;;16.23;94.16;101129.38;4954565;28;20042;-85
2022/06/22 06:43:51;;;;;;;1.77;1.20;;;;;;;16.34;93.55;101138.81;4986978;28;20242;-85
2022/06/22 06:46:38;;;;;;;1.70;1.20;;;;;;;16.42;93.71;101148.66;4978590;28;20105;-88
2022/06/22 06:49:16;;;;;;;1.85;1.17;;;;;;;16.38;92.68;101140.09;4983661;28;20027;-86
2022/06/22 06:51:48;;;;;;;1.92;1.30;;;;;;;16.24;92.71;101120.19;4955293;28;20096;-87
2022/06/22 06:54:21;;;;;;;2.67;1.30;;;;;;;16.25;92.26;101121.88;4973014;28;20101;-91
2022/06/22 06:57:09;;;;;;;1.65;1.17;;;;;;;16.33;92.12;101129.00;4951531;28;20026;-83
2022/06/22 06:59:35;;;;;;;1.30;1.10;;;;;;;16.44;92.01;101141.16;4968882;28;20518;-83
2022/06/22 07:02:09;;;;;;;2.42;1.30;;;;;;;16.53;92.16;101137.19;4985170;28;20026;-82
2022/06/22 07:04:35;;;;;;;1.60;1.13;;;;;;;16.74;91.35;101140.78;4957171;28;20100;-87
2022/06/22 07:07:04;;;;;;;2.15;1.35;;;;;;;16.84;88.82;101142.06;4970279;28;20038;-83
2022/06/22 07:09:33;;;;;;;3.13;1.35;;;;;;;16.87;89.00;101132.66;4990991;28;20042;-87
2022/06/22 07:12:26;;;;;;;1.88;1.20;;;;;;;16.90;87.87;101116.78;4966900;28;20041;-82
2022/06/22 07:14:51;;;;;;;1.77;1.55;;;;;;;17.11;86.67;101131.19;4968068;28;20046;-84
2022/06/22 07:17:46;;;;;;;2.95;1.40;;;;;;;17.28;86.97;101143.31;4986152;28;20088;-87
2022/06/22 07:20:22;;;;;;;2.83;1.17;;;;;;;17.40;85.85;101138.06;4996535;28;20031;-86
2022/06/22 07:22:59;;;;;;;2.88;1.20;;;;;;;17.45;83.76;101146.44;4986636;28;20042;-88
2022/06/22 07:25:31;;;;;;;2.95;1.25;;;;;;;17.63;83.77;101144.94;4963728;28;20030;-86
2022/06/22 07:28:17;;;;;;;2.00;1.05;;;;;;;17.94;83.07;101153.25;4985895;28;20040;-85
2022/06/22 07:30:50;;;;;;;2.53;1.27;;;;;;;18.14;81.98;101147.69;4967646;28;20092;-87
2022/06/22 07:33:19;;;;;;;1.40;0.93;;;;;;;18.17;80.32;101141.81;4987072;28;20397;-89
2022/06/22 07:35:57;;;;;;;2.20;1.20;;;;;;;18.26;79.18;101150.59;4984050;28;20431;-88
2022/06/22 07:38:35;;;;;;;2.53;1.30;;;;;;;18.29;78.56;101139.25;4971139;28;20030;-84
2022/06/22 07:41:19;;;;;;;1.30;1.00;;;;;;;18.35;78.43;101146.56;4985039;28;20035;-86
2022/06/22 07:44:06;;;;;;;262.58;34.25;;;;;;;18.37;78.19;101141.72;4957865;28;20034;-82
2022/06/22 07:46:44;;;;;;;10.50;2.00;;;;;;;18.37;78.86;101149.06;4980231;28;20084;-83
2022/06/22 07:49:15;;;;;;;2.45;1.20;;;;;;;18.46;78.68;101143.13;4980816;28;20185;-84
2022/06/22 07:51:49;;;;;;;1.27;0.77;;;;;;;18.49;77.02;101119.25;4963548;28;20085;-84
2022/06/22 07:54:16;;;;;;;2.45;1.38;;;;;;;18.69;77.15;101128.13;4957262;28;20136;-89
2022/06/22 07:56:54;;;;;;;2.08;1.30;;;;;;;18.81;77.11;101120.91;4962506;28;20026;-87
2022/06/22 07:59:29;;;;;;;1.35;0.98;;;;;;;18.95;75.79;101127.13;4986093;28;20034;-89
2022/06/22 08:01:59;;;;;;;2.33;1.00;;;;;;;19.01;72.87;101115.31;4971861;28;20065;-89
2022/06/22 08:04:35;;;;;;;1.58;1.05;;;;;;;19.04;73.72;101125.78;4968596;28;20027;-90
2022/06/22 08:07:05;;;;;;;1.58;0.95;;;;;;;19.28;72.88;101120.53;4952105;28;20046;-90
2022/06/22 08:09:39;;;;;;;1.85;1.20;;;;;;;19.39;72.75;101111.59;4963865;28;20539;-90
2022/06/22 08:12:18;;;;;;;3.58;1.10;;;;;;;19.59;69.68;101116.03;4968267;28;20039;-88
2022/06/22 08:14:47;;;;;;;1.67;1.00;;;;;;;19.74;70.42;101124.66;4986396;28;20114;-89
2022/06/22 08:17:35;;;;;;;1.00;0.90;;;;;;;19.94;70.16;101141.66;4953960;28;20038;-83
2022/06/22 08:20:00;;;;;;;1.23;1.00;;;;;;;19.97;69.24;101123.97;4966836;28;20034;-90
2022/06/22 08:22:26;;;;;;;1.23;0.85;;;;;;;20.10;68.20;101132.00;4990113;28;20038;-84
2022/06/22 08:24:54;;;;;;;2.70;1.00;;;;;;;20.19;66.83;101114.25;4986460;28;20034;-85
2022/06/22 08:27:22;;;;;;;1.92;1.10;;;;;;;20.47;65.71;101112.81;5002842;28;20381;-85
2022/06/22 08:29:48;;;;;;;1.13;0.82;;;;;;;20.43;65.42;101111.63;4982538;28;20038;-81
2022/06/22 08:32:34;;;;;;;1.42;0.80;;;;;;;20.50;65.46;101123.25;4989957;28;20041;-86
2022/06/22 08:35:23;;;;;;;2.35;1.00;;;;;;;20.72;65.68;101109.09;4970118;28;20041;-87
2022/06/22 08:38:04;;;;;;;2.80;1.00;;;;;;;21.06;64.58;101102.84;4986791;28;20038;-85
2022/06/22 08:40:53;;;;;;;1.38;0.95;;;;;;;21.33;63.15;101102.38;4972406;28;20053;-86
2022/06/22 08:43:29;;;;;;;1.27;0.93;;;;;;;21.83;62.15;101087.31;4988221;28;20069;-86
2022/06/22 08:46:23;;;;;;;1.65;0.98;;;;;;;22.24;58.79;101088.97;4988942;28;20042;-90
2022/06/22 08:48:57;;;;;;;1.10;1.00;;;;;;;22.35;58.52;101096.28;4974415;28;20577;-86
2022/06/22 08:51:32;;;;;;;1.40;1.00;;;;;;;22.69;58.15;101096.34;4988282;28;20068;-84
2022/06/22 08:54:04;;;;;;;1.20;0.93;;;;;;;22.91;56.80;101093.69;4990122;28;20491;-85
2022/06/22 08:56:48;;;;;;;3.92;1.10;;;;;;;23.09;55.62;101100.03;4991175;28;20084;-84
2022/06/22 08:59:37;;;;;;;2.35;1.05;;;;;;;23.29;55.05;101097.59;4970187;28;20133;-86
2022/06/22 09:02:09;;;;;;;1.33;1.00;;;;;;;23.13;54.65;101096.53;4973544;28;20038;-86
2022/06/22 09:05:07;;;;;;;1.08;0.80;;;;;;;23.33;54.97;101097.91;4984920;28;20125;-82
2022/06/22 09:07:59;;;;;;;1.55;1.10;;;;;;;23.65;53.19;101104.38;4959174;28;20046;-90
2022/06/22 09:10:45;;;;;;;1.52;1.10;;;;;;;24.05;52.95;101103.25;4984976;28;20080;-87
2022/06/22 09:14:04;;;;;;;2.45;1.20;;;;;;;24.47;50.88;101091.63;4971964;28;20054;-86
2022/06/22 09:16:51;;;;;;;1.17;1.02;;;;;;;24.66;49.14;101097.56;4935373;28;20050;-86
2022/06/22 09:19:24;;;;;;;1.20;1.00;;;;;;;24.88;50.78;101097.50;4947183;28;20037;-84
2022/06/22 09:22:02;;;;;;;1.40;0.90;;;;;;;25.09;48.34;101100.41;4959797;28;20053;-84
2022/06/22 09:24:41;;;;;;;1.90;1.20;;;;;;;24.76;49.79;101069.34;4991580;28;20053;-86
2022/06/22 09:27:18;;;;;;;2.70;1.45;;;;;;;24.75;49.12;101079.50;4959246;28;20040;-83
2022/06/22 09:29:56;;;;;;;4.97;3.42;;;;;;;24.94;49.11;101073.59;4959068;28;20034;-90
2022/06/22 09:32:48;;;;;;;3.92;1.42;;;;;;;25.13;47.66;101080.31;4987844;28;20038;-83
2022/06/22 09:35:51;;;;;;;4.13;2.22;;;;;;;25.41;48.88;101084.66;4993707;28;20057;-87
2022/06/22 09:38:30;;;;;;;1.40;1.10;;;;;;;25.45;47.28;101093.22;4973664;28;20092;-89
2022/06/22 09:41:23;;;;;;;1.98;1.35;;;;;;;25.45;48.03;101076.69;4974073;28;20038;-82
2022/06/22 09:43:52;;;;;;;2.67;1.30;;;;;;;25.64;46.80;101085.31;4988034;28;20423;-86
2022/06/22 09:46:36;;;;;;;1.38;1.10;;;;;;;25.68;47.30;101058.91;4990847;28;20037;-85
2022/06/22 09:49:04;;;;;;;5.38;3.67;;;;;;;25.85;46.48;101073.34;4975823;28;20104;-86
2022/06/22 09:51:55;;;;;;;1.63;1.17;;;;;;;25.88;46.29;101082.97;4991712;28;20542;-88
2022/06/22 09:57:45;;;;;;;3.10;1.60;;;;;;;25.58;46.34;101078.13;4991632;28;20033;-88
2022/06/22 10:00:49;;;;;;;1.75;1.30;;;;;;;25.50;45.63;101081.41;4990898;28;20487;-84
2022/06/22 10:03:35;;;;;;;2.28;1.20;;;;;;;25.23;46.66;101087.84;4965616;28;20042;-85
2022/06/22 10:06:18;;;;;;;1.83;1.20;;;;;;;25.41;46.32;101072.81;4973234;28;20439;-84
2022/06/22 10:09:36;;;;;;;2.00;1.38;;;;;;;25.78;46.52;101075.47;4990344;28;20030;-84
2022/06/22 10:12:16;;;;;;;2.22;1.30;;;;;;;26.07;45.65;101066.78;4987379;28;20049;-87
2022/06/22 10:14:53;;;;;;;1.52;1.25;;;;;;;26.51;44.92;101066.25;4971464;28;20049;-83
2022/06/22 10:17:49;;;;;;;2.53;1.30;;;;;;;26.72;43.53;101067.94;4987240;28;20408;-82
2022/06/22 10:20:38;;;;;;;1.65;1.50;;;;;;;26.61;42.79;101060.78;5003694;28;20022;-82
2022/06/22 10:23:23;;;;;;;1.60;1.30;;;;;;;26.25;45.53;101069.03;4974862;28;20032;-82
2022/06/22 10:26:08;;;;;;;2.20;1.42;;;;;;;26.60;45.24;101075.69;4969873;28;20030;-87
2022/06/22 10:28:49;;;;;;;1.33;1.20;;;;;;;26.80;43.13;101071.25;4991363;28;20030;-83
2022/06/22 10:31:33;;;;;;;1.55;1.30;;;;;;;26.80;43.57;101057.47;4989809;28;20069;-82
2022/06/22 10:34:35;;;;;;;2.33;1.10;;;;;;;27.23;42.16;101080.91;4991235;28;20030;-83
2022/06/22 10:37:00;;;;;;;;;;;;;;;27.55;41.09;101069.47;4980134;28;20100;-82
2022/06/22 10:39:59;;;;;;;1.63;1.10;;;;;;;27.62;40.31;101069.16;4990869;28;19914;-84
2022/06/22 10:46:01;;;;;;;1.30;1.20;;;;;;;27.98;39.43;101060.75;4994504;28;20060;-82
2022/06/22 10:48:38;;;;;;;1.70;1.40;;;;;;;28.40;39.01;101073.19;4993390;28;20046;-82
2022/06/22 10:51:21;;;;;;;2.20;1.40;;;;;;;28.54;39.36;101065.91;4972186;28;20034;-82
2022/06/22 10:53:59;;;;;;;3.20;1.20;;;;;;;28.69;39.13;101045.59;4977955;28;20090;-81
2022/06/22 10:56:43;;;;;;;1.60;1.50;;;;;;;28.65;39.51;101064.69;5000323;28;20069;-83
2022/06/22 10:59:30;;;;;;;2.38;1.42;;;;;;;28.56;40.00;101063.69;4971677;28;20038;-83
2022/06/22 11:02:24;;;;;;;2.90;1.40;;;;;;;28.68;39.59;101057.75;4972244;28;20030;-82
2022/06/22 11:04:50;;;;;;;2.15;1.20;;;;;;;28.61;38.05;101054.53;4984182;28;20038;-81
2022/06/22 11:07:31;;;;;;;1.00;0.90;;;;;;;28.30;38.33;101045.59;4985589;28;20072;-83
2022/06/22 11:10:09;;;;;;;2.15;1.20;;;;;;;27.84;39.74;101055.03;4990388;28;20404;-83
2022/06/22 11:13:01;;;;;;;1.60;1.30;;;;;;;27.88;39.76;101046.97;4989386;28;20030;-81
2022/06/22 11:16:02;;;;;;;2.25;1.48;;;;;;;27.61;40.84;101054.53;4969054;28;20047;-82
2022/06/22 11:18:41;;;;;;;1.88;1.20;;;;;;;26.89;41.88;101033.75;4986513;28;20454;-83
2022/06/22 11:21:15;;;;;;;1.42;1.13;;;;;;;26.52;42.39;101052.25;4950543;28;20046;-83
2022/06/22 11:24:12;;;;;;;1.10;0.98;;;;;;;26.25;43.59;101052.47;4993892;28;20651;-82
2022/06/22 11:32:45;;;;;;;1.33;1.17;;;;;;;26.25;44.25;101044.22;4976011;28;20084;-83
2022/06/22 11:35:29;;;;;;;1.65;1.08;;;;;;;26.51;43.02;101045.06;4971801;28;22022;-84
2022/06/22 11:38:19;;;;;;;1.30;1.20;;;;;;;26.78;43.71;101048.63;4987362;28;20066;-84
2022/06/22 11:41:03;;;;;;;1.17;0.90;;;;;;;27.05;38.76;101040.06;4973170;28;20031;-83
2022/06/22 11:43:35;;;;;;;1.20;0.90;;;;;;;26.99;39.20;101041.97;4972771;28;20034;-84
2022/06/22 11:46:15;;;;;;;1.02;0.90;;;;;;;26.87;39.17;101038.72;4969254;28;20126;-83
2022/06/22 11:48:47;;;;;;;2.28;1.00;;;;;;;26.98;38.70;101043.09;4968755;28;20034;-84
2022/06/22 11:51:31;;;;;;;1.40;1.30;;;;;;;26.59;39.58;101034.59;4990899;28;20026;-86
2022/06/22 11:54:24;;;;;;;1.38;0.98;;;;;;;26.08;41.05;101038.94;4969830;28;20061;-82
2022/06/22 11:56:56;;;;;;;3.92;1.15;;;;;;;25.26;42.63;101031.47;4969848;28;20046;-82
2022/06/22 11:59:37;;;;;;;1.88;1.20;;;;;;;24.33;44.90;101040.91;4999618;28;20033;-80
2022/06/22 12:02:27;;;;;;;2.45;1.73;;;;;;;23.65;47.19;101035.75;4970508;28;20125;-85
2022/06/22 12:05:19;;;;;;;2.10;1.30;;;;;;;23.14;49.07;101037.84;4988601;28;20185;-83
2022/06/22 12:07:52;;;;;;;1.67;1.17;;;;;;;22.80;51.18;101039.78;4972681;28;20038;-86
2022/06/22 12:10:44;;;;;;;1.50;1.10;;;;;;;22.62;52.42;101029.88;4991144;28;20484;-84
2022/06/22 12:16:39;;;;;;;2.72;1.40;;;;;;;22.02;55.78;101028.56;4988314;28;20112;-81
2022/06/22 12:19:07;;;;;;;1.77;1.50;;;;;;;21.65;57.63;101018.00;4959772;28;20480;-84
2022/06/22 12:21:41;;;;;;;2.10;1.85;;;;;;;21.65;58.96;101047.28;4987673;28;20030;-84
2022/06/22 12:24:11;;;;;;;3.28;2.00;;;;;;;21.46;59.76;101041.09;4969551;28;20157;-85
2022/06/22 12:26:36;;;;;;;2.40;1.70;;;;;;;21.40;61.03;101040.16;4959188;28;20042;-82
2022/06/22 12:29:40;;;;;;;3.85;1.80;;;;;;;21.25;61.79;101020.69;4975509;28;20042;-84
2022/06/22 12:32:17;;;;;;;2.50;2.13;;;;;;;21.37;62.31;101031.59;4975801;28;20128;-83
2022/06/22 12:35:24;;;;;;;3.33;1.70;;;;;;;21.39;63.03;101037.69;4975369;28;20034;-83